createdAt,value
2019-06-27T00:01:12.396Z,74.70
2019-06-27T00:03:38.663Z,74.50
2019-06-27T00:06:04.889Z,74.35
2019-06-27T00:08:31.150Z,74.73
2019-06-27T00:10:57.410Z,73.96
2019-06-27T00:13:23.632Z,74.03
2019-06-27T00:15:49.903Z,74.22
2019-06-27T00:18:16.137Z,73.73
2019-06-27T00:20:42.426Z,73.59
2019-06-27T00:23:08.650Z,73.89
2019-06-27T00:25:34.774Z,73.75
2019-06-27T00:28:01.019Z,74.16
2019-06-27T00:30:27.319Z,74.31
2019-06-27T00:32:53.570Z,73.83
2019-06-27T00:35:19.811Z,73.68
2019-06-27T00:37:46.066Z,74.52
2019-06-27T00:40:12.896Z,73.90
2019-06-27T00:42:39.172Z,74.43
2019-06-27T00:45:05.795Z,73.47
2019-06-27T00:47:31.973Z,74.11
2019-06-27T00:49:58.240Z,74.76
2019-06-27T00:52:24.514Z,74.43
2019-06-27T00:54:50.855Z,74.24
2019-06-27T00:57:17.203Z,74.67
2019-06-27T00:59:43.461Z,74.88
2019-06-27T01:02:09.705Z,75.09
2019-06-27T01:04:35.974Z,75.29
2019-06-27T01:07:02.115Z,74.51
2019-06-27T01:09:28.383Z,74.74
2019-06-27T01:11:54.615Z,74.49
2019-06-27T01:14:20.868Z,74.61
2019-06-27T01:16:47.119Z,74.55
2019-06-27T01:19:13.370Z,74.68
2019-06-27T01:21:39.719Z,74.88
2019-06-27T01:24:05.969Z,75.22
2019-06-27T01:26:32.220Z,75.69
2019-06-27T01:28:58.471Z,75.79
2019-06-27T01:31:24.717Z,76.91
2019-06-27T01:33:50.969Z,76.62
2019-06-27T01:36:17.229Z,76.09
2019-06-27T01:38:43.485Z,76.35
2019-06-27T01:41:09.773Z,76.34
2019-06-27T01:43:36.008Z,76.73
2019-06-27T01:46:02.766Z,77.07
2019-06-27T01:48:29.023Z,76.70
2019-06-27T01:50:55.165Z,76.52
2019-06-27T01:53:21.442Z,76.31
2019-06-27T01:55:47.603Z,76.83
2019-06-27T01:58:13.841Z,76.70
2019-06-27T02:00:40.195Z,76.56
2019-06-27T02:03:06.437Z,77.15
2019-06-27T02:05:32.596Z,76.25
2019-06-27T02:07:58.832Z,76.65
2019-06-27T02:10:25.077Z,76.47
2019-06-27T02:12:51.223Z,76.26
2019-06-27T02:15:21.821Z,76.39
2019-06-27T02:17:46.527Z,76.80
2019-06-27T02:20:14.771Z,76.31
2019-06-27T02:22:41.017Z,76.12
2019-06-27T02:25:07.575Z,75.88
2019-06-27T02:27:33.817Z,75.95
2019-06-27T02:30:00.081Z,75.72
2019-06-27T02:32:26.313Z,74.93
2019-06-27T02:34:52.549Z,74.47
2019-06-27T02:37:18.808Z,74.69
2019-06-27T02:39:44.948Z,74.09
2019-06-27T02:42:11.252Z,72.96
2019-06-27T02:44:37.473Z,74.41
2019-06-27T02:47:03.724Z,73.30
2019-06-27T02:49:29.980Z,73.85
2019-06-27T02:51:56.222Z,73.38
2019-06-27T02:54:22.475Z,72.86
2019-06-27T02:56:48.729Z,73.45
2019-06-27T02:59:14.884Z,73.63
2019-06-27T03:01:41.152Z,72.09
2019-06-27T03:04:07.381Z,73.11
2019-06-27T03:06:33.619Z,74.04
2019-06-27T03:08:59.867Z,74.13
2019-06-27T03:11:26.101Z,73.82
2019-06-27T03:13:52.339Z,74.17
2019-06-27T03:16:18.593Z,73.88
2019-06-27T03:18:44.836Z,73.55
2019-06-27T03:21:10.983Z,72.03
2019-06-27T03:23:37.233Z,73.12
2019-06-27T03:26:03.472Z,73.01
2019-06-27T03:28:49.967Z,72.91
2019-06-27T03:30:57.794Z,72.64
2019-06-27T03:33:24.034Z,72.57
2019-06-27T03:35:50.277Z,72.24
2019-06-27T03:38:16.539Z,72.05
2019-06-27T03:40:42.679Z,72.17
2019-06-27T03:43:08.931Z,72.74
2019-06-27T03:45:35.212Z,71.35
2019-06-27T03:48:01.505Z,71.92
2019-06-27T03:50:27.754Z,71.40
2019-06-27T03:52:53.906Z,71.41
2019-06-27T03:55:20.208Z,69.85
2019-06-27T03:57:46.368Z,70.35
2019-06-27T04:00:16.318Z,69.61
2019-06-27T04:02:42.513Z,70.61
2019-06-27T04:05:08.781Z,70.94
2019-06-27T04:07:34.989Z,71.13
2019-06-27T04:10:01.270Z,70.63
2019-06-27T04:12:27.515Z,70.58
2019-06-27T04:14:53.652Z,70.12
2019-06-27T04:17:19.926Z,70.35
2019-06-27T04:19:46.164Z,70.29
2019-06-27T04:22:17.118Z,70.89
2019-06-27T04:24:40.582Z,70.01
2019-06-27T04:27:06.818Z,69.80
2019-06-27T04:29:34.629Z,70.53
2019-06-27T04:32:01.123Z,70.94
2019-06-27T04:34:27.365Z,70.31
2019-06-27T04:36:53.606Z,70.31
2019-06-27T04:39:19.866Z,71.06
2019-06-27T04:41:46.123Z,70.06
2019-06-27T04:44:12.356Z,69.35
2019-06-27T04:46:38.648Z,67.96
2019-06-27T04:49:04.914Z,68.73
2019-06-27T04:51:31.157Z,68.23
2019-06-27T04:53:57.402Z,66.52
2019-06-27T04:56:23.770Z,64.99
2019-06-27T04:58:50.044Z,65.28
2019-06-27T05:01:16.295Z,64.43
2019-06-27T05:03:42.525Z,63.00
2019-06-27T05:06:08.765Z,59.35
2019-06-27T05:08:34.951Z,61.50
2019-06-27T05:11:01.112Z,62.97
2019-06-27T05:13:27.341Z,62.81
2019-06-27T05:15:53.514Z,62.87
2019-06-27T05:18:19.864Z,62.06
2019-06-27T05:20:46.114Z,62.45
2019-06-27T05:23:12.345Z,62.10
2019-06-27T05:25:38.593Z,60.48
2019-06-27T05:28:04.733Z,61.47
2019-06-27T05:30:30.983Z,59.37
2019-06-27T05:32:57.222Z,58.52
2019-06-27T05:35:23.472Z,58.13
2019-06-27T05:37:49.719Z,58.13
2019-06-27T05:40:15.975Z,53.86
2019-06-27T05:42:42.120Z,53.86
2019-06-27T05:45:08.458Z,54.77
2019-06-27T05:47:34.725Z,52.11
2019-06-27T05:50:00.973Z,53.18
2019-06-27T05:52:27.140Z,50.20
2019-06-27T05:54:53.402Z,53.62
2019-06-27T05:57:19.638Z,52.43
2019-06-27T05:59:45.895Z,48.65
2019-06-27T06:02:12.113Z,51.84
2019-06-27T06:04:38.368Z,48.91
2019-06-27T06:07:04.593Z,48.21
2019-06-27T06:09:32.951Z,47.08
2019-06-27T06:11:58.993Z,48.42
2019-06-27T06:14:25.239Z,47.62
2019-06-27T06:16:51.489Z,44.54
2019-06-27T06:19:17.816Z,47.94
2019-06-27T06:21:44.056Z,46.89
2019-06-27T06:24:10.289Z,45.80
2019-06-27T06:26:36.576Z,47.44
2019-06-27T06:29:02.952Z,47.37
2019-06-27T06:31:29.188Z,46.28
2019-06-27T06:33:55.309Z,46.44
2019-06-27T06:36:21.748Z,44.37
2019-06-27T06:38:47.992Z,42.31
2019-06-27T06:41:14.162Z,43.18
2019-06-27T06:43:40.288Z,45.14
2019-06-27T06:46:06.718Z,44.96
2019-06-27T06:48:33.005Z,44.68
2019-06-27T06:50:59.337Z,46.16
2019-06-27T06:53:25.580Z,45.21
2019-06-27T06:55:51.807Z,46.30
2019-06-27T06:58:18.054Z,47.66
2019-06-27T07:00:57.054Z,45.07
2019-06-27T07:03:12.421Z,48.51
2019-06-27T07:05:38.648Z,46.34
2019-06-27T07:08:04.791Z,45.39
2019-06-27T07:10:30.913Z,43.52
2019-06-27T07:12:57.046Z,43.82
2019-06-27T07:15:23.205Z,47.20
2019-06-27T07:17:49.343Z,47.77
2019-06-27T07:20:15.899Z,48.96
2019-06-27T07:22:42.130Z,49.24
2019-06-27T07:25:08.471Z,47.32
2019-06-27T07:27:34.589Z,47.83
2019-06-27T07:30:00.828Z,49.07
2019-06-27T07:32:27.052Z,48.08
2019-06-27T07:34:53.217Z,47.61
2019-06-27T07:37:19.346Z,48.77
2019-06-27T07:39:45.588Z,47.84
2019-06-27T07:42:11.856Z,49.67
2019-06-27T07:44:38.077Z,48.87
2019-06-27T07:47:04.325Z,46.28
2019-06-27T07:49:33.193Z,49.63
2019-06-27T07:51:58.731Z,43.78
2019-06-27T07:54:24.971Z,47.25
2019-06-27T07:56:51.219Z,44.28
2019-06-27T07:59:17.454Z,46.76
2019-06-27T08:01:43.724Z,46.34
2019-06-27T08:04:09.985Z,46.91
2019-06-27T08:06:36.229Z,46.41
2019-06-27T08:09:02.575Z,47.80
2019-06-27T08:11:28.798Z,46.14
2019-06-27T08:13:54.953Z,46.54
2019-06-27T08:16:21.188Z,41.53
2019-06-27T08:18:47.437Z,41.23
2019-06-27T08:21:13.679Z,45.19
2019-06-27T08:23:41.892Z,45.42
2019-06-27T08:26:07.956Z,43.78
2019-06-27T08:28:34.241Z,46.76
2019-06-27T08:31:00.472Z,47.89
2019-06-27T08:33:26.713Z,48.43
2019-06-27T08:35:52.943Z,46.32
2019-06-27T08:38:19.175Z,47.47
2019-06-27T08:40:45.422Z,45.41
2019-06-27T08:43:11.642Z,47.08
2019-06-27T08:45:37.925Z,45.24
2019-06-27T08:48:04.149Z,46.97
2019-06-27T08:50:30.386Z,48.15
2019-06-27T08:52:56.633Z,49.41
2019-06-27T08:55:22.772Z,45.70
2019-06-27T08:57:48.907Z,48.87
2019-06-27T09:00:15.836Z,45.43
2019-06-27T09:02:41.990Z,47.45
2019-06-27T09:05:09.218Z,48.73
2019-06-27T09:07:35.463Z,47.92
2019-06-27T09:10:02.686Z,47.06
2019-06-27T09:12:28.929Z,45.92
2019-06-27T09:14:55.192Z,48.06
2019-06-27T09:17:21.426Z,47.44
2019-06-27T09:19:47.568Z,45.19
2019-06-27T09:22:13.804Z,47.64
2019-06-27T09:24:40.086Z,45.99
2019-06-27T09:27:06.319Z,46.80
2019-06-27T09:29:32.558Z,44.32
2019-06-27T09:31:58.788Z,45.34
2019-06-27T09:34:24.924Z,45.37
2019-06-27T09:36:51.162Z,44.62
2019-06-27T09:39:17.395Z,43.39
2019-06-27T09:41:43.533Z,43.36
2019-06-27T09:44:10.902Z,42.00
2019-06-27T09:46:37.172Z,41.93
2019-06-27T09:49:03.419Z,38.35
2019-06-27T09:51:29.554Z,38.98
2019-06-27T09:53:55.819Z,42.66
2019-06-27T09:56:22.125Z,38.04
2019-06-27T09:58:48.372Z,41.25
2019-06-27T10:01:14.628Z,40.81
2019-06-27T10:03:40.864Z,36.51
2019-06-27T10:06:07.096Z,38.33
2019-06-27T10:08:33.327Z,39.69
2019-06-27T10:10:59.455Z,41.69
2019-06-27T10:13:25.724Z,43.94
2019-06-27T10:15:51.957Z,43.13
2019-06-27T10:18:18.715Z,39.90
2019-06-27T10:20:44.956Z,42.72
2019-06-27T10:23:11.185Z,40.25
2019-06-27T10:25:38.376Z,38.70
2019-06-27T10:28:04.583Z,40.16
2019-06-27T10:30:30.736Z,40.10
2019-06-27T10:32:59.792Z,41.23
2019-06-27T10:35:25.108Z,38.31
2019-06-27T10:37:51.228Z,42.01
2019-06-27T10:40:18.363Z,39.80
2019-06-27T10:42:44.613Z,41.49
2019-06-27T10:45:10.843Z,41.56
2019-06-27T10:47:36.983Z,41.52
2019-06-27T10:50:04.640Z,41.49
2019-06-27T10:52:30.945Z,40.44
2019-06-27T10:54:57.246Z,40.94
2019-06-27T10:57:23.484Z,42.15
2019-06-27T10:59:49.710Z,37.94
2019-06-27T11:02:15.847Z,41.72
2019-06-27T11:04:42.091Z,39.04
2019-06-27T11:07:08.342Z,40.91
2019-06-27T11:09:37.491Z,39.54
2019-06-27T11:12:03.723Z,35.27
2019-06-27T11:14:29.969Z,36.61
2019-06-27T11:16:56.106Z,33.99
2019-06-27T11:19:22.364Z,38.94
2019-06-27T11:21:48.580Z,37.92
2019-06-27T11:24:15.057Z,37.50
2019-06-27T11:26:41.310Z,38.70
2019-06-27T11:29:07.595Z,35.75
2019-06-27T11:31:33.750Z,37.26
2019-06-27T11:33:59.972Z,35.40
2019-06-27T11:36:26.204Z,37.35
2019-06-27T11:38:52.435Z,36.83
2019-06-27T11:41:18.707Z,39.50
2019-06-27T11:43:45.087Z,39.50
2019-06-27T11:46:11.346Z,39.90
2019-06-27T11:48:37.573Z,39.25
2019-06-27T11:51:03.821Z,37.86
2019-06-27T11:53:30.048Z,40.75
2019-06-27T11:55:56.170Z,39.71
2019-06-27T11:58:22.429Z,38.78
2019-06-27T12:00:48.651Z,35.81
2019-06-27T12:03:14.899Z,35.63
2019-06-27T12:05:41.145Z,38.63
2019-06-27T12:08:10.827Z,39.13
2019-06-27T12:10:35.418Z,37.98
2019-06-27T12:13:01.590Z,31.82
2019-06-27T12:15:27.789Z,32.41
2019-06-27T12:17:54.031Z,36.64
2019-06-27T12:20:20.284Z,33.60
2019-06-27T12:22:46.507Z,32.59
2019-06-27T12:25:12.759Z,37.60
2019-06-27T12:27:38.903Z,36.78
2019-06-27T12:30:05.976Z,35.42
2019-06-27T12:32:32.200Z,34.06
2019-06-27T12:34:58.456Z,32.65
2019-06-27T12:37:24.702Z,32.79
2019-06-27T12:39:50.847Z,33.22
2019-06-27T12:42:31.524Z,32.87
2019-06-27T12:44:45.211Z,32.52
2019-06-27T12:47:11.450Z,34.08
2019-06-27T12:49:56.937Z,36.07
2019-06-27T12:52:05.631Z,35.05
2019-06-27T12:54:31.763Z,33.32
2019-06-27T12:56:58.005Z,32.74
2019-06-27T12:59:24.138Z,31.83
2019-06-27T13:01:50.419Z,33.12
2019-06-27T13:04:23.358Z,34.41
2019-06-27T13:06:44.672Z,36.50
2019-06-27T13:09:10.907Z,32.25
2019-06-27T13:11:37.154Z,33.39
2019-06-27T13:14:03.420Z,31.29
2019-06-27T13:16:31.160Z,33.88
2019-06-27T13:18:57.710Z,33.73
2019-06-27T13:21:23.950Z,34.92
2019-06-27T13:23:50.199Z,32.84
2019-06-27T13:26:16.419Z,33.59
2019-06-27T13:28:42.731Z,33.81
2019-06-27T13:31:08.951Z,32.17
2019-06-27T13:33:35.191Z,30.30
2019-06-27T13:36:01.430Z,29.78
2019-06-27T13:38:27.658Z,33.12
2019-06-27T13:40:53.889Z,29.86
2019-06-27T13:43:20.131Z,31.82
2019-06-27T13:45:46.357Z,29.98
2019-06-27T13:48:12.626Z,32.25
2019-06-27T13:50:38.852Z,29.81
2019-06-27T13:53:05.116Z,30.01
2019-06-27T13:55:31.361Z,28.68
2019-06-27T13:57:57.991Z,32.88
2019-06-27T14:00:30.617Z,32.85
2019-06-27T14:02:56.865Z,31.43
2019-06-27T14:05:23.096Z,33.01
2019-06-27T14:07:49.345Z,31.85
2019-06-27T14:10:15.695Z,32.40
2019-06-27T14:12:44.767Z,31.34
2019-06-27T14:15:10.885Z,31.97
2019-06-27T14:17:37.102Z,29.85
2019-06-27T14:20:07.752Z,31.17
2019-06-27T14:22:34.305Z,30.86
2019-06-27T14:25:00.625Z,31.30
2019-06-27T14:27:26.863Z,29.95
2019-06-27T14:29:56.446Z,31.01
2019-06-27T14:32:21.162Z,30.09
2019-06-27T14:34:47.415Z,32.85
2019-06-27T14:37:13.641Z,30.50
2019-06-27T14:39:39.814Z,32.22
2019-06-27T14:42:06.025Z,29.88
2019-06-27T14:44:32.252Z,30.85
2019-06-27T14:46:58.497Z,32.80
2019-06-27T14:49:24.750Z,33.34
2019-06-27T14:51:50.991Z,32.46
2019-06-27T14:54:17.241Z,31.21
2019-06-27T14:56:43.488Z,30.27
2019-06-27T14:59:14.015Z,32.96
2019-06-27T15:01:37.963Z,29.66
2019-06-27T15:04:04.093Z,31.45
2019-06-27T15:06:30.314Z,31.97
2019-06-27T15:08:56.932Z,30.44
2019-06-27T15:11:23.149Z,29.93
2019-06-27T15:13:49.287Z,30.83
2019-06-27T15:16:15.409Z,31.68
2019-06-27T15:18:41.678Z,30.44
2019-06-27T15:21:07.924Z,32.12
2019-06-27T15:23:34.113Z,33.56
2019-06-27T15:26:00.361Z,30.83
2019-06-27T15:28:26.626Z,32.16
2019-06-27T15:30:52.892Z,35.62
2019-06-27T15:33:19.113Z,30.40
2019-06-27T15:35:52.359Z,31.44
2019-06-27T15:38:13.484Z,32.87
2019-06-27T15:40:41.026Z,30.54
2019-06-27T15:43:07.162Z,31.95
2019-06-27T15:45:33.578Z,32.25
2019-06-27T15:47:59.772Z,29.97
2019-06-27T15:50:26.062Z,31.43
2019-06-27T15:52:52.369Z,30.41
2019-06-27T15:55:18.600Z,31.20
2019-06-27T15:57:44.736Z,32.61
2019-06-27T16:00:11.269Z,34.62
2019-06-27T16:02:37.511Z,32.19
2019-06-27T16:05:05.421Z,31.84
2019-06-27T16:07:31.646Z,30.92
2019-06-27T16:09:57.880Z,33.81
2019-06-27T16:12:24.113Z,30.74
2019-06-27T16:14:50.240Z,30.91
2019-06-27T16:17:16.485Z,31.99
2019-06-27T16:19:42.733Z,30.15
2019-06-27T16:22:08.997Z,30.77
2019-06-27T16:24:35.247Z,30.26
2019-06-27T16:27:01.392Z,31.75
2019-06-27T16:29:27.666Z,29.93
2019-06-27T16:31:53.898Z,29.61
2019-06-27T16:34:20.950Z,30.27
2019-06-27T16:36:47.187Z,31.71
2019-06-27T16:39:13.449Z,31.24
2019-06-27T16:41:39.739Z,29.84
2019-06-27T16:44:05.990Z,31.10
2019-06-27T16:46:32.235Z,30.37
2019-06-27T16:48:58.506Z,30.47
2019-06-27T16:51:24.737Z,32.52
2019-06-27T16:53:50.892Z,31.59
2019-06-27T16:56:17.134Z,31.09
2019-06-27T16:58:43.369Z,31.20
2019-06-27T17:01:09.623Z,29.85
2019-06-27T17:03:35.890Z,31.51
2019-06-27T17:06:02.154Z,32.32
2019-06-27T17:08:28.397Z,34.00
2019-06-27T17:10:54.667Z,34.48
2019-06-27T17:13:20.905Z,33.82
2019-06-27T17:15:47.186Z,32.88
2019-06-27T17:18:13.683Z,32.73
2019-06-27T17:20:39.854Z,31.90
2019-06-27T17:23:06.182Z,32.74
2019-06-27T17:25:32.475Z,32.79
2019-06-27T17:27:58.728Z,33.09
2019-06-27T17:30:24.993Z,34.46
2019-06-27T17:32:51.435Z,34.43
2019-06-27T17:35:20.293Z,32.78
2019-06-27T17:37:46.467Z,32.86
2019-06-27T17:40:12.889Z,34.50
2019-06-27T17:42:39.153Z,34.33
2019-06-27T17:45:05.897Z,35.07
2019-06-27T17:47:32.153Z,33.45
2019-06-27T17:49:58.399Z,33.35
2019-06-27T17:52:24.676Z,34.59
2019-06-27T17:54:50.915Z,36.32
2019-06-27T17:57:17.208Z,35.82
2019-06-27T17:59:43.467Z,34.39
2019-06-27T18:02:09.697Z,34.44
2019-06-27T18:04:35.863Z,35.67
2019-06-27T18:07:13.538Z,35.67
2019-06-27T18:09:30.088Z,36.57
2019-06-27T18:11:56.233Z,35.95
2019-06-27T18:14:22.570Z,38.51
2019-06-27T18:16:48.724Z,38.51
2019-06-27T18:19:14.961Z,37.21
2019-06-27T18:21:41.226Z,38.35
2019-06-27T18:24:07.457Z,38.35
2019-06-27T18:26:33.681Z,38.57
2019-06-27T18:28:59.936Z,38.95
2019-06-27T18:31:26.161Z,38.34
2019-06-27T18:33:52.290Z,39.90
2019-06-27T18:36:18.417Z,40.86
2019-06-27T18:38:44.564Z,42.18
2019-06-27T18:41:12.910Z,40.09
2019-06-27T18:43:38.994Z,40.81
2019-06-27T18:46:05.270Z,41.02
2019-06-27T18:48:31.512Z,41.97
2019-06-27T18:50:57.743Z,42.67
2019-06-27T18:53:23.992Z,41.08
2019-06-27T18:55:50.228Z,41.21
2019-06-27T18:58:16.466Z,42.08
2019-06-27T19:00:42.714Z,42.81
2019-06-27T19:03:08.944Z,41.46
2019-06-27T19:05:35.191Z,43.38
2019-06-27T19:08:01.453Z,41.89
2019-06-27T19:10:27.695Z,42.12
2019-06-27T19:12:53.922Z,42.27
2019-06-27T19:15:20.164Z,41.12
2019-06-27T19:17:46.397Z,40.97
2019-06-27T19:20:14.660Z,41.76
2019-06-27T19:22:54.620Z,42.92
2019-06-27T19:25:22.679Z,42.57
2019-06-27T19:27:48.899Z,42.16
2019-06-27T19:30:15.204Z,41.94
2019-06-27T19:32:41.480Z,41.84
2019-06-27T19:35:07.977Z,41.73
2019-06-27T19:37:34.223Z,42.01
2019-06-27T19:40:00.340Z,41.71
2019-06-27T19:42:26.582Z,42.28
2019-06-27T19:44:52.711Z,41.01
2019-06-27T19:47:18.939Z,42.15
2019-06-27T19:49:45.065Z,42.70
2019-06-27T19:52:11.303Z,41.87
2019-06-27T19:54:37.537Z,42.45
2019-06-27T19:57:03.800Z,42.39
2019-06-27T19:59:29.932Z,41.92
2019-06-27T20:01:57.010Z,41.95
2019-06-27T20:04:23.272Z,43.47
2019-06-27T20:06:49.504Z,44.20
2019-06-27T20:09:15.748Z,44.76
2019-06-27T20:11:41.983Z,45.04
2019-06-27T20:14:08.244Z,45.53
2019-06-27T20:16:34.519Z,45.08
2019-06-27T20:19:00.639Z,44.69
2019-06-27T20:21:26.884Z,44.63
2019-06-27T20:23:53.143Z,44.76
2019-06-27T20:26:19.258Z,44.40
2019-06-27T20:28:45.543Z,45.17
2019-06-27T20:31:11.686Z,44.92
2019-06-27T20:33:37.911Z,44.94
2019-06-27T20:36:04.059Z,45.65
2019-06-27T20:38:34.820Z,45.85
2019-06-27T20:40:58.335Z,46.69
2019-06-27T20:43:24.565Z,47.17
2019-06-27T20:45:50.750Z,46.71
2019-06-27T20:48:17.047Z,46.88
2019-06-27T20:50:43.289Z,47.65
2019-06-27T20:53:09.521Z,47.77
2019-06-27T20:55:35.749Z,47.89
2019-06-27T20:58:01.997Z,49.14
2019-06-27T21:00:28.360Z,48.73
2019-06-27T21:02:54.612Z,49.04
2019-06-27T21:05:20.765Z,49.46
2019-06-27T21:07:47.029Z,49.28
2019-06-27T21:10:13.662Z,50.35
2019-06-27T21:12:39.925Z,50.59
2019-06-27T21:15:06.942Z,50.33
2019-06-27T21:17:33.242Z,50.75
2019-06-27T21:19:59.473Z,51.10
2019-06-27T21:22:25.918Z,51.73
2019-06-27T21:24:52.164Z,51.66
2019-06-27T21:27:18.495Z,52.69
2019-06-27T21:29:44.760Z,53.10
2019-06-27T21:32:10.917Z,53.48
2019-06-27T21:34:37.165Z,54.01
2019-06-27T21:37:03.391Z,54.07
2019-06-27T21:39:29.643Z,54.23
2019-06-27T21:41:55.877Z,54.29
2019-06-27T21:44:22.113Z,54.39
2019-06-27T21:46:48.408Z,55.24
2019-06-27T21:49:14.645Z,55.11
2019-06-27T21:51:40.788Z,55.00
2019-06-27T21:54:07.032Z,55.32
2019-06-27T21:56:33.344Z,55.45
2019-06-27T21:58:59.570Z,55.39
2019-06-27T22:01:25.813Z,55.13
2019-06-27T22:03:52.104Z,55.45
2019-06-27T22:06:18.213Z,55.85
2019-06-27T22:08:44.476Z,56.27
2019-06-27T22:11:10.608Z,56.32
2019-06-27T22:13:36.751Z,56.52
2019-06-27T22:16:02.996Z,57.15
2019-06-27T22:18:29.237Z,57.58
2019-06-27T22:20:55.477Z,58.07
2019-06-27T22:23:21.749Z,58.20
2019-06-27T22:25:48.773Z,58.46
2019-06-27T22:28:15.020Z,59.28
2019-06-27T22:30:41.202Z,59.18
2019-06-27T22:33:07.530Z,59.19
2019-06-27T22:35:33.810Z,59.09
2019-06-27T22:38:18.395Z,58.89
2019-06-27T22:41:02.789Z,59.23
2019-06-27T22:43:47.454Z,59.62
2019-06-27T22:46:32.156Z,60.42
2019-06-27T22:48:59.186Z,60.49
2019-06-27T22:51:35.841Z,60.65
2019-06-27T22:54:03.920Z,61.20
2019-06-27T22:56:30.159Z,61.65
2019-06-27T22:58:56.300Z,62.57
2019-06-27T23:01:22.551Z,63.55
2019-06-27T23:03:48.786Z,64.03
2019-06-27T23:06:16.829Z,64.35
2019-06-27T23:08:43.067Z,64.68
2019-06-27T23:11:09.208Z,64.65
2019-06-27T23:13:35.451Z,64.89
2019-06-27T23:16:01.674Z,65.04
2019-06-27T23:18:27.832Z,65.13
2019-06-27T23:20:53.957Z,65.22
2019-06-27T23:23:20.097Z,65.13
2019-06-27T23:25:46.330Z,65.94
2019-06-27T23:28:12.481Z,66.61
2019-06-27T23:30:38.626Z,66.66
2019-06-27T23:33:04.756Z,68.60
2019-06-27T23:35:31.012Z,67.22
2019-06-27T23:37:57.159Z,67.44
2019-06-27T23:40:23.396Z,67.66
2019-06-27T23:42:49.624Z,67.58
2019-06-27T23:45:17.370Z,67.41
2019-06-27T23:47:43.595Z,67.54
2019-06-27T23:50:09.839Z,67.69
2019-06-27T23:52:36.053Z,68.08
2019-06-27T23:55:02.509Z,68.34
2019-06-27T23:57:28.732Z,68.79
2019-06-27T23:59:54.968Z,68.68
